sensor_id;sensor_type;location;lat;lon;timestamp;temperature;humidity
26081;DHT22;13991;51.174;4.438;2023-06-10T00:01:04;24.40;81.00
26081;DHT22;13991;51.174;4.438;2023-06-10T00:03:31;24.40;80.70
26081;DHT22;13991;51.174;4.438;2023-06-10T00:05:58;24.40;81.20
26081;DHT22;13991;51.174;4.438;2023-06-10T00:08:23;24.30;81.50
26081;DHT22;13991;51.174;4.438;2023-06-10T00:10:50;24.30;81.70
26081;DHT22;13991;51.174;4.438;2023-06-10T00:13:15;24.20;82.00
26081;DHT22;13991;51.174;4.438;2023-06-10T00:15:42;24.10;82.40
26081;DHT22;13991;51.174;4.438;2023-06-10T00:18:08;24.00;82.90
26081;DHT22;13991;51.174;4.438;2023-06-10T00:20:35;24.00;82.90
26081;DHT22;13991;51.174;4.438;2023-06-10T00:23:03;24.10;83.10
26081;DHT22;13991;51.174;4.438;2023-06-10T00:25:34;24.00;83.00
26081;DHT22;13991;51.174;4.438;2023-06-10T00:28:00;24.00;83.00
26081;DHT22;13991;51.174;4.438;2023-06-10T00:30:29;23.90;83.10
26081;DHT22;13991;51.174;4.438;2023-06-10T00:32:57;23.90;83.10
26081;DHT22;13991;51.174;4.438;2023-06-10T00:35:29;23.80;83.00
26081;DHT22;13991;51.174;4.438;2023-06-10T00:37:57;23.80;83.50
26081;DHT22;13991;51.174;4.438;2023-06-10T00:40:23;23.70;83.50
26081;DHT22;13991;51.174;4.438;2023-06-10T00:42:49;23.70;83.80
26081;DHT22;13991;51.174;4.438;2023-06-10T00:45:35;23.80;83.80
26081;DHT22;13991;51.174;4.438;2023-06-10T00:48:07;23.70;84.30
26081;DHT22;13991;51.174;4.438;2023-06-10T00:50:33;23.60;84.40
26081;DHT22;13991;51.174;4.438;2023-06-10T00:53:00;23.60;84.20
26081;DHT22;13991;51.174;4.438;2023-06-10T00:55:27;23.60;84.20
26081;DHT22;13991;51.174;4.438;2023-06-10T00:57:53;23.50;84.80
26081;DHT22;13991;51.174;4.438;2023-06-10T01:00:25;23.60;84.90
26081;DHT22;13991;51.174;4.438;2023-06-10T01:02:53;23.60;84.90
26081;DHT22;13991;51.174;4.438;2023-06-10T01:05:25;23.50;85.20
26081;DHT22;13991;51.174;4.438;2023-06-10T01:08:16;23.60;84.90
26081;DHT22;13991;51.174;4.438;2023-06-10T01:10:57;23.70;84.70
26081;DHT22;13991;51.174;4.438;2023-06-10T01:13:28;23.60;85.20
26081;DHT22;13991;51.174;4.438;2023-06-10T01:16:02;23.50;85.50
26081;DHT22;13991;51.174;4.438;2023-06-10T01:18:37;23.40;86.00
26081;DHT22;13991;51.174;4.438;2023-06-10T01:21:04;23.30;86.50
26081;DHT22;13991;51.174;4.438;2023-06-10T01:23:32;23.20;87.00
26081;DHT22;13991;51.174;4.438;2023-06-10T01:26:18;23.20;87.10
26081;DHT22;13991;51.174;4.438;2023-06-10T01:29:03;23.20;87.40
26081;DHT22;13991;51.174;4.438;2023-06-10T01:31:49;23.10;87.50
26081;DHT22;13991;51.174;4.438;2023-06-10T01:34:21;23.20;87.60
26081;DHT22;13991;51.174;4.438;2023-06-10T01:36:52;23.10;87.90
26081;DHT22;13991;51.174;4.438;2023-06-10T01:39:29;23.20;87.80
26081;DHT22;13991;51.174;4.438;2023-06-10T01:41:56;23.20;88.40
26081;DHT22;13991;51.174;4.438;2023-06-10T01:44:23;23.10;88.30
26081;DHT22;13991;51.174;4.438;2023-06-10T01:46:49;23.20;88.10
26081;DHT22;13991;51.174;4.438;2023-06-10T01:49:18;23.10;88.10
26081;DHT22;13991;51.174;4.438;2023-06-10T01:51:43;23.00;88.80
26081;DHT22;13991;51.174;4.438;2023-06-10T01:54:09;23.00;88.70
26081;DHT22;13991;51.174;4.438;2023-06-10T01:56:35;23.00;89.10
26081;DHT22;13991;51.174;4.438;2023-06-10T01:59:10;23.00;89.00
26081;DHT22;13991;51.174;4.438;2023-06-10T02:01:36;23.00;89.10
26081;DHT22;13991;51.174;4.438;2023-06-10T02:04:01;23.00;89.30
26081;DHT22;13991;51.174;4.438;2023-06-10T02:06:27;23.00;89.60
26081;DHT22;13991;51.174;4.438;2023-06-10T02:08:53;22.90;90.10
26081;DHT22;13991;51.174;4.438;2023-06-10T02:11:22;22.90;90.00
26081;DHT22;13991;51.174;4.438;2023-06-10T02:13:48;22.80;90.20
26081;DHT22;13991;51.174;4.438;2023-06-10T02:16:13;22.80;90.30
26081;DHT22;13991;51.174;4.438;2023-06-10T02:18:42;22.80;90.20
26081;DHT22;13991;51.174;4.438;2023-06-10T02:21:14;22.80;90.20
26081;DHT22;13991;51.174;4.438;2023-06-10T02:23:40;22.90;90.30
26081;DHT22;13991;51.174;4.438;2023-06-10T02:26:08;22.80;90.50
26081;DHT22;13991;51.174;4.438;2023-06-10T02:31:56;22.70;90.60
26081;DHT22;13991;51.174;4.438;2023-06-10T02:34:24;22.80;90.50
26081;DHT22;13991;51.174;4.438;2023-06-10T02:37:00;22.70;90.60
26081;DHT22;13991;51.174;4.438;2023-06-10T02:39:32;22.80;90.70
26081;DHT22;13991;51.174;4.438;2023-06-10T02:41:58;22.60;90.90
26081;DHT22;13991;51.174;4.438;2023-06-10T02:44:23;22.60;91.10
26081;DHT22;13991;51.174;4.438;2023-06-10T02:46:50;22.70;91.20
26081;DHT22;13991;51.174;4.438;2023-06-10T02:49:16;22.60;91.20
26081;DHT22;13991;51.174;4.438;2023-06-10T02:51:42;22.60;91.20
26081;DHT22;13991;51.174;4.438;2023-06-10T02:54:07;22.60;91.20
26081;DHT22;13991;51.174;4.438;2023-06-10T02:56:36;22.50;91.30
26081;DHT22;13991;51.174;4.438;2023-06-10T02:59:02;22.50;91.30
26081;DHT22;13991;51.174;4.438;2023-06-10T03:01:28;22.40;91.70
26081;DHT22;13991;51.174;4.438;2023-06-10T03:03:53;22.30;91.80
26081;DHT22;13991;51.174;4.438;2023-06-10T03:06:21;22.30;91.80
26081;DHT22;13991;51.174;4.438;2023-06-10T03:08:50;22.40;91.90
26081;DHT22;13991;51.174;4.438;2023-06-10T03:11:15;22.30;92.00
26081;DHT22;13991;51.174;4.438;2023-06-10T03:14:02;22.40;92.00
26081;DHT22;13991;51.174;4.438;2023-06-10T03:16:28;22.40;91.90
26081;DHT22;13991;51.174;4.438;2023-06-10T03:18:59;22.30;92.20
26081;DHT22;13991;51.174;4.438;2023-06-10T03:21:25;22.30;92.30
26081;DHT22;13991;51.174;4.438;2023-06-10T03:23:52;22.30;92.40
26081;DHT22;13991;51.174;4.438;2023-06-10T03:26:20;22.30;92.30
26081;DHT22;13991;51.174;4.438;2023-06-10T03:28:50;22.20;92.30
26081;DHT22;13991;51.174;4.438;2023-06-10T03:31:28;22.20;92.60
26081;DHT22;13991;51.174;4.438;2023-06-10T03:34:12;22.10;92.70
26081;DHT22;13991;51.174;4.438;2023-06-10T03:36:43;22.10;92.80
26081;DHT22;13991;51.174;4.438;2023-06-10T03:39:12;21.90;93.10
26081;DHT22;13991;51.174;4.438;2023-06-10T03:44:30;22.10;93.00
26081;DHT22;13991;51.174;4.438;2023-06-10T03:46:59;22.10;93.00
26081;DHT22;13991;51.174;4.438;2023-06-10T03:49:31;22.10;93.00
26081;DHT22;13991;51.174;4.438;2023-06-10T03:51:58;22.10;93.00
26081;DHT22;13991;51.174;4.438;2023-06-10T03:54:30;22.10;93.00
26081;DHT22;13991;51.174;4.438;2023-06-10T03:56:57;22.00;93.20
26081;DHT22;13991;51.174;4.438;2023-06-10T03:59:29;22.00;93.30
26081;DHT22;13991;51.174;4.438;2023-06-10T04:01:55;22.00;93.30
26081;DHT22;13991;51.174;4.438;2023-06-10T04:04:25;21.90;93.30
26081;DHT22;13991;51.174;4.438;2023-06-10T04:06:54;22.00;93.50
26081;DHT22;13991;51.174;4.438;2023-06-10T04:09:19;22.00;93.50
26081;DHT22;13991;51.174;4.438;2023-06-10T04:11:45;22.00;93.50
26081;DHT22;13991;51.174;4.438;2023-06-10T04:14:11;22.00;93.40
26081;DHT22;13991;51.174;4.438;2023-06-10T04:16:39;22.10;93.20
26081;DHT22;13991;51.174;4.438;2023-06-10T04:19:04;22.10;93.30
26081;DHT22;13991;51.174;4.438;2023-06-10T04:21:30;22.10;93.30
26081;DHT22;13991;51.174;4.438;2023-06-10T04:23:56;22.20;93.30
26081;DHT22;13991;51.174;4.438;2023-06-10T04:26:21;22.10;93.40
26081;DHT22;13991;51.174;4.438;2023-06-10T04:28:47;22.20;93.20
26081;DHT22;13991;51.174;4.438;2023-06-10T04:31:13;22.20;93.30
26081;DHT22;13991;51.174;4.438;2023-06-10T04:33:38;22.10;93.40
26081;DHT22;13991;51.174;4.438;2023-06-10T04:36:04;22.10;93.40
26081;DHT22;13991;51.174;4.438;2023-06-10T04:38:32;22.20;93.40
26081;DHT22;13991;51.174;4.438;2023-06-10T04:40:57;22.30;93.40
26081;DHT22;13991;51.174;4.438;2023-06-10T04:43:24;22.40;93.20
26081;DHT22;13991;51.174;4.438;2023-06-10T04:45:54;22.40;93.10
26081;DHT22;13991;51.174;4.438;2023-06-10T04:48:22;22.50;92.90
26081;DHT22;13991;51.174;4.438;2023-06-10T04:50:49;22.40;93.10
26081;DHT22;13991;51.174;4.438;2023-06-10T04:53:16;22.50;93.10
26081;DHT22;13991;51.174;4.438;2023-06-10T04:55:42;22.60;92.90
26081;DHT22;13991;51.174;4.438;2023-06-10T04:58:09;22.70;92.70
26081;DHT22;13991;51.174;4.438;2023-06-10T05:00:35;22.70;92.70
26081;DHT22;13991;51.174;4.438;2023-06-10T05:03:01;22.80;92.60
26081;DHT22;13991;51.174;4.438;2023-06-10T05:05:26;22.80;92.60
26081;DHT22;13991;51.174;4.438;2023-06-10T05:07:53;22.90;92.60
26081;DHT22;13991;51.174;4.438;2023-06-10T05:10:19;22.90;92.60
26081;DHT22;13991;51.174;4.438;2023-06-10T05:12:45;23.10;92.60
26081;DHT22;13991;51.174;4.438;2023-06-10T05:15:11;23.00;92.50
26081;DHT22;13991;51.174;4.438;2023-06-10T05:17:38;23.00;92.60
26081;DHT22;13991;51.174;4.438;2023-06-10T05:20:08;22.90;92.70
26081;DHT22;13991;51.174;4.438;2023-06-10T05:22:34;22.90;92.70
26081;DHT22;13991;51.174;4.438;2023-06-10T05:25:00;23.10;92.60
26081;DHT22;13991;51.174;4.438;2023-06-10T05:27:27;23.10;92.50
26081;DHT22;13991;51.174;4.438;2023-06-10T05:29:52;23.20;92.50
26081;DHT22;13991;51.174;4.438;2023-06-10T05:32:18;23.10;92.40
26081;DHT22;13991;51.174;4.438;2023-06-10T05:34:44;23.10;92.40
26081;DHT22;13991;51.174;4.438;2023-06-10T05:37:10;23.00;92.70
26081;DHT22;13991;51.174;4.438;2023-06-10T05:39:36;23.00;92.50
26081;DHT22;13991;51.174;4.438;2023-06-10T05:42:05;22.80;92.60
26081;DHT22;13991;51.174;4.438;2023-06-10T05:44:32;22.90;92.70
26081;DHT22;13991;51.174;4.438;2023-06-10T05:46:58;22.80;92.60
26081;DHT22;13991;51.174;4.438;2023-06-10T05:49:31;22.80;92.90
26081;DHT22;13991;51.174;4.438;2023-06-10T05:51:56;22.70;93.00
26081;DHT22;13991;51.174;4.438;2023-06-10T05:54:25;22.90;92.90
26081;DHT22;13991;51.174;4.438;2023-06-10T05:56:51;23.00;92.50
26081;DHT22;13991;51.174;4.438;2023-06-10T05:59:17;23.10;92.70
26081;DHT22;13991;51.174;4.438;2023-06-10T06:01:44;23.00;92.90
26081;DHT22;13991;51.174;4.438;2023-06-10T06:04:12;23.10;92.60
26081;DHT22;13991;51.174;4.438;2023-06-10T06:06:40;23.20;92.40
26081;DHT22;13991;51.174;4.438;2023-06-10T06:09:10;23.20;92.50
26081;DHT22;13991;51.174;4.438;2023-06-10T06:14:17;23.20;92.60
26081;DHT22;13991;51.174;4.438;2023-06-10T06:16:46;23.30;92.60
26081;DHT22;13991;51.174;4.438;2023-06-10T06:19:14;23.70;92.20
26081;DHT22;13991;51.174;4.438;2023-06-10T06:21:44;24.10;91.50
26081;DHT22;13991;51.174;4.438;2023-06-10T06:24:15;24.60;90.80
26081;DHT22;13991;51.174;4.438;2023-06-10T06:26:47;24.80;90.60
26081;DHT22;13991;51.174;4.438;2023-06-10T06:29:30;24.80;90.40
26081;DHT22;13991;51.174;4.438;2023-06-10T06:32:05;24.70;90.20
26081;DHT22;13991;51.174;4.438;2023-06-10T06:34:36;24.40;90.80
26081;DHT22;13991;51.174;4.438;2023-06-10T06:37:11;24.10;90.70
26081;DHT22;13991;51.174;4.438;2023-06-10T06:39:40;24.10;91.30
26081;DHT22;13991;51.174;4.438;2023-06-10T06:42:11;24.10;91.00
26081;DHT22;13991;51.174;4.438;2023-06-10T06:44:40;24.20;91.10
26081;DHT22;13991;51.174;4.438;2023-06-10T06:47:06;24.30;90.80
26081;DHT22;13991;51.174;4.438;2023-06-10T06:49:32;24.20;91.10
26081;DHT22;13991;51.174;4.438;2023-06-10T06:51:58;24.30;91.00
26081;DHT22;13991;51.174;4.438;2023-06-10T06:54:23;24.50;90.70
26081;DHT22;13991;51.174;4.438;2023-06-10T06:56:50;24.60;90.80
26081;DHT22;13991;51.174;4.438;2023-06-10T06:59:19;24.60;90.70
26081;DHT22;13991;51.174;4.438;2023-06-10T07:01:46;24.60;90.70
26081;DHT22;13991;51.174;4.438;2023-06-10T07:04:14;24.80;90.40
26081;DHT22;13991;51.174;4.438;2023-06-10T07:06:47;24.80;90.20
26081;DHT22;13991;51.174;4.438;2023-06-10T07:09:27;24.80;90.00
26081;DHT22;13991;51.174;4.438;2023-06-10T07:11:56;25.00;89.70
26081;DHT22;13991;51.174;4.438;2023-06-10T07:14:31;24.90;90.30
26081;DHT22;13991;51.174;4.438;2023-06-10T07:16:56;25.00;90.20
26081;DHT22;13991;51.174;4.438;2023-06-10T07:19:22;25.20;90.00
26081;DHT22;13991;51.174;4.438;2023-06-10T07:21:48;25.30;89.70
26081;DHT22;13991;51.174;4.438;2023-06-10T07:24:13;25.50;89.40
26081;DHT22;13991;51.174;4.438;2023-06-10T07:26:39;25.70;88.10
26081;DHT22;13991;51.174;4.438;2023-06-10T07:29:05;25.70;87.60
26081;DHT22;13991;51.174;4.438;2023-06-10T07:31:31;25.70;86.70
26081;DHT22;13991;51.174;4.438;2023-06-10T07:33:57;25.70;87.40
26081;DHT22;13991;51.174;4.438;2023-06-10T07:36:28;25.80;87.10
26081;DHT22;13991;51.174;4.438;2023-06-10T07:38:55;25.90;86.30
26081;DHT22;13991;51.174;4.438;2023-06-10T07:41:27;26.00;87.00
26081;DHT22;13991;51.174;4.438;2023-06-10T07:43:53;25.90;86.90
26081;DHT22;13991;51.174;4.438;2023-06-10T07:46:23;26.00;87.10
26081;DHT22;13991;51.174;4.438;2023-06-10T07:48:54;26.00;86.80
26081;DHT22;13991;51.174;4.438;2023-06-10T07:51:44;26.00;87.90
26081;DHT22;13991;51.174;4.438;2023-06-10T07:54:13;26.10;88.20
26081;DHT22;13991;51.174;4.438;2023-06-10T07:56:39;26.20;87.30
26081;DHT22;13991;51.174;4.438;2023-06-10T07:59:05;26.50;86.60
26081;DHT22;13991;51.174;4.438;2023-06-10T08:01:31;26.70;86.30
26081;DHT22;13991;51.174;4.438;2023-06-10T08:03:58;26.80;84.20
26081;DHT22;13991;51.174;4.438;2023-06-10T08:06:24;26.90;84.10
26081;DHT22;13991;51.174;4.438;2023-06-10T08:08:50;26.80;83.80
26081;DHT22;13991;51.174;4.438;2023-06-10T08:11:19;26.90;82.90
26081;DHT22;13991;51.174;4.438;2023-06-10T08:13:55;27.00;82.70
26081;DHT22;13991;51.174;4.438;2023-06-10T08:16:28;26.90;81.50
26081;DHT22;13991;51.174;4.438;2023-06-10T08:18:53;27.00;82.30
26081;DHT22;13991;51.174;4.438;2023-06-10T08:21:19;27.10;82.10
26081;DHT22;13991;51.174;4.438;2023-06-10T08:23:45;27.30;82.10
26081;DHT22;13991;51.174;4.438;2023-06-10T08:26:14;27.40;81.70
26081;DHT22;13991;51.174;4.438;2023-06-10T08:28:39;27.40;81.10
26081;DHT22;13991;51.174;4.438;2023-06-10T08:31:18;27.50;80.20
26081;DHT22;13991;51.174;4.438;2023-06-10T08:33:50;27.80;80.40
26081;DHT22;13991;51.174;4.438;2023-06-10T08:36:15;27.60;78.10
26081;DHT22;13991;51.174;4.438;2023-06-10T08:38:41;27.70;76.70
26081;DHT22;13991;51.174;4.438;2023-06-10T08:41:25;27.80;77.10
26081;DHT22;13991;51.174;4.438;2023-06-10T08:46:41;28.00;76.10
26081;DHT22;13991;51.174;4.438;2023-06-10T08:49:25;28.10;77.00
26081;DHT22;13991;51.174;4.438;2023-06-10T08:52:02;28.10;78.00
26081;DHT22;13991;51.174;4.438;2023-06-10T08:54:36;28.20;75.80
26081;DHT22;13991;51.174;4.438;2023-06-10T08:57:07;28.40;74.40
26081;DHT22;13991;51.174;4.438;2023-06-10T08:59:36;28.40;76.10
26081;DHT22;13991;51.174;4.438;2023-06-10T09:02:26;28.50;76.10
26081;DHT22;13991;51.174;4.438;2023-06-10T09:04:58;28.80;74.10
26081;DHT22;13991;51.174;4.438;2023-06-10T09:07:48;29.00;73.90
26081;DHT22;13991;51.174;4.438;2023-06-10T09:10:22;29.20;72.80
26081;DHT22;13991;51.174;4.438;2023-06-10T09:12:51;29.20;72.50
26081;DHT22;13991;51.174;4.438;2023-06-10T09:15:23;29.20;73.30
26081;DHT22;13991;51.174;4.438;2023-06-10T09:18:01;29.30;72.90
26081;DHT22;13991;51.174;4.438;2023-06-10T09:20:34;29.40;72.00
26081;DHT22;13991;51.174;4.438;2023-06-10T09:23:25;29.50;72.30
26081;DHT22;13991;51.174;4.438;2023-06-10T09:25:59;29.50;72.10
26081;DHT22;13991;51.174;4.438;2023-06-10T09:28:25;29.50;73.50
26081;DHT22;13991;51.174;4.438;2023-06-10T09:31:04;29.70;71.90
26081;DHT22;13991;51.174;4.438;2023-06-10T09:33:37;29.60;71.70
26081;DHT22;13991;51.174;4.438;2023-06-10T09:36:10;29.70;70.40
26081;DHT22;13991;51.174;4.438;2023-06-10T09:38:38;29.80;71.20
26081;DHT22;13991;51.174;4.438;2023-06-10T09:41:04;30.00;69.40
26081;DHT22;13991;51.174;4.438;2023-06-10T09:43:46;30.00;69.20
26081;DHT22;13991;51.174;4.438;2023-06-10T09:46:20;30.00;68.80
26081;DHT22;13991;51.174;4.438;2023-06-10T09:48:49;30.10;68.60
26081;DHT22;13991;51.174;4.438;2023-06-10T09:51:24;30.10;69.50
26081;DHT22;13991;51.174;4.438;2023-06-10T09:53:54;30.20;68.30
26081;DHT22;13991;51.174;4.438;2023-06-10T09:56:20;30.00;67.60
26081;DHT22;13991;51.174;4.438;2023-06-10T09:58:49;30.10;67.30
26081;DHT22;13991;51.174;4.438;2023-06-10T10:01:22;30.20;66.50
26081;DHT22;13991;51.174;4.438;2023-06-10T10:03:51;30.30;67.80
26081;DHT22;13991;51.174;4.438;2023-06-10T10:06:23;30.30;69.20
26081;DHT22;13991;51.174;4.438;2023-06-10T10:08:58;30.40;68.40
26081;DHT22;13991;51.174;4.438;2023-06-10T10:11:30;30.40;64.00
26081;DHT22;13991;51.174;4.438;2023-06-10T10:13:57;30.40;65.70
26081;DHT22;13991;51.174;4.438;2023-06-10T10:16:41;30.50;65.00
26081;DHT22;13991;51.174;4.438;2023-06-10T10:19:20;30.50;63.00
26081;DHT22;13991;51.174;4.438;2023-06-10T10:22:01;30.70;62.80
26081;DHT22;13991;51.174;4.438;2023-06-10T10:25:29;30.70;62.20
26081;DHT22;13991;51.174;4.438;2023-06-10T10:28:24;30.70;62.90
26081;DHT22;13991;51.174;4.438;2023-06-10T10:31:16;30.90;63.40
26081;DHT22;13991;51.174;4.438;2023-06-10T10:34:01;30.80;59.20
26081;DHT22;13991;51.174;4.438;2023-06-10T10:36:28;30.80;59.40
26081;DHT22;13991;51.174;4.438;2023-06-10T10:38:59;31.00;59.10
26081;DHT22;13991;51.174;4.438;2023-06-10T10:41:37;31.10;57.60
26081;DHT22;13991;51.174;4.438;2023-06-10T10:44:07;31.10;57.70
26081;DHT22;13991;51.174;4.438;2023-06-10T10:46:44;30.80;58.50
26081;DHT22;13991;51.174;4.438;2023-06-10T10:49:18;30.80;58.40
26081;DHT22;13991;51.174;4.438;2023-06-10T10:51:58;30.90;56.20
26081;DHT22;13991;51.174;4.438;2023-06-10T10:54:49;30.90;55.60
26081;DHT22;13991;51.174;4.438;2023-06-10T10:57:20;31.00;56.70
26081;DHT22;13991;51.174;4.438;2023-06-10T11:02:44;31.10;58.70
26081;DHT22;13991;51.174;4.438;2023-06-10T11:05:15;31.40;58.80
26081;DHT22;13991;51.174;4.438;2023-06-10T11:07:56;31.40;57.70
26081;DHT22;13991;51.174;4.438;2023-06-10T11:10:37;31.30;57.50
26081;DHT22;13991;51.174;4.438;2023-06-10T11:13:22;31.40;57.10
26081;DHT22;13991;51.174;4.438;2023-06-10T11:15:49;31.50;56.80
26081;DHT22;13991;51.174;4.438;2023-06-10T11:18:34;31.60;56.50
26081;DHT22;13991;51.174;4.438;2023-06-10T11:21:11;31.80;55.70
26081;DHT22;13991;51.174;4.438;2023-06-10T11:23:41;31.80;55.80
26081;DHT22;13991;51.174;4.438;2023-06-10T11:31:39;32.30;55.40
26081;DHT22;13991;51.174;4.438;2023-06-10T11:34:06;32.10;55.00
26081;DHT22;13991;51.174;4.438;2023-06-10T11:36:34;32.10;54.10
26081;DHT22;13991;51.174;4.438;2023-06-10T11:39:09;32.20;54.80
26081;DHT22;13991;51.174;4.438;2023-06-10T11:41:49;32.10;52.80
26081;DHT22;13991;51.174;4.438;2023-06-10T11:44:27;32.20;54.20
26081;DHT22;13991;51.174;4.438;2023-06-10T11:47:11;32.10;52.80
26081;DHT22;13991;51.174;4.438;2023-06-10T11:49:43;32.10;53.90
26081;DHT22;13991;51.174;4.438;2023-06-10T11:52:29;32.30;55.30
26081;DHT22;13991;51.174;4.438;2023-06-10T11:55:00;32.10;55.10
26081;DHT22;13991;51.174;4.438;2023-06-10T11:57:41;32.00;56.10
26081;DHT22;13991;51.174;4.438;2023-06-10T12:00:07;32.10;56.20
26081;DHT22;13991;51.174;4.438;2023-06-10T12:02:36;32.40;55.50
26081;DHT22;13991;51.174;4.438;2023-06-10T12:05:53;32.60;54.70
26081;DHT22;13991;51.174;4.438;2023-06-10T12:08:33;32.80;53.90
26081;DHT22;13991;51.174;4.438;2023-06-10T12:11:34;32.70;53.80
26081;DHT22;13991;51.174;4.438;2023-06-10T12:14:00;32.80;54.00
26081;DHT22;13991;51.174;4.438;2023-06-10T12:16:26;32.60;54.00
26081;DHT22;13991;51.174;4.438;2023-06-10T12:19:01;32.50;52.80
26081;DHT22;13991;51.174;4.438;2023-06-10T12:21:36;32.70;52.70
26081;DHT22;13991;51.174;4.438;2023-06-10T12:24:08;32.40;52.60
26081;DHT22;13991;51.174;4.438;2023-06-10T12:26:44;32.60;52.50
26081;DHT22;13991;51.174;4.438;2023-06-10T12:29:25;32.50;53.50
26081;DHT22;13991;51.174;4.438;2023-06-10T12:32:04;32.60;51.00
26081;DHT22;13991;51.174;4.438;2023-06-10T12:34:34;32.50;51.60
26081;DHT22;13991;51.174;4.438;2023-06-10T12:37:17;32.60;52.20
26081;DHT22;13991;51.174;4.438;2023-06-10T12:39:51;32.70;52.00
26081;DHT22;13991;51.174;4.438;2023-06-10T12:42:27;32.70;52.20
26081;DHT22;13991;51.174;4.438;2023-06-10T12:44:54;32.80;52.20
26081;DHT22;13991;51.174;4.438;2023-06-10T12:47:35;32.90;51.10
26081;DHT22;13991;51.174;4.438;2023-06-10T12:50:02;32.80;51.90
26081;DHT22;13991;51.174;4.438;2023-06-10T12:52:38;32.40;51.60
26081;DHT22;13991;51.174;4.438;2023-06-10T12:55:10;32.40;51.80
26081;DHT22;13991;51.174;4.438;2023-06-10T12:57:48;32.40;52.10
26081;DHT22;13991;51.174;4.438;2023-06-10T13:00:14;32.70;52.60
26081;DHT22;13991;51.174;4.438;2023-06-10T13:02:47;32.40;51.70
26081;DHT22;13991;51.174;4.438;2023-06-10T13:05:29;32.10;52.80
26081;DHT22;13991;51.174;4.438;2023-06-10T13:08:01;32.30;52.30
26081;DHT22;13991;51.174;4.438;2023-06-10T13:10:39;32.50;51.70
26081;DHT22;13991;51.174;4.438;2023-06-10T13:13:20;32.60;49.90
26081;DHT22;13991;51.174;4.438;2023-06-10T13:15:49;32.60;49.70
26081;DHT22;13991;51.174;4.438;2023-06-10T13:18:21;32.60;49.90
26081;DHT22;13991;51.174;4.438;2023-06-10T13:20:56;32.80;50.00
26081;DHT22;13991;51.174;4.438;2023-06-10T13:23:24;32.70;50.50
26081;DHT22;13991;51.174;4.438;2023-06-10T13:25:59;32.80;50.80
26081;DHT22;13991;51.174;4.438;2023-06-10T13:28:29;32.80;50.90
26081;DHT22;13991;51.174;4.438;2023-06-10T13:30:56;33.10;50.90
26081;DHT22;13991;51.174;4.438;2023-06-10T13:33:33;33.10;50.60
26081;DHT22;13991;51.174;4.438;2023-06-10T13:35:59;33.10;50.30
26081;DHT22;13991;51.174;4.438;2023-06-10T13:38:25;32.90;49.90
26081;DHT22;13991;51.174;4.438;2023-06-10T13:40:50;32.80;49.70
26081;DHT22;13991;51.174;4.438;2023-06-10T13:43:35;32.80;49.80
26081;DHT22;13991;51.174;4.438;2023-06-10T13:46:15;32.80;51.40
26081;DHT22;13991;51.174;4.438;2023-06-10T13:49:02;32.90;52.30
26081;DHT22;13991;51.174;4.438;2023-06-10T13:51:33;32.90;50.50
26081;DHT22;13991;51.174;4.438;2023-06-10T13:54:02;33.00;49.80
26081;DHT22;13991;51.174;4.438;2023-06-10T13:56:28;32.90;50.60
26081;DHT22;13991;51.174;4.438;2023-06-10T13:58:54;33.00;49.50
26081;DHT22;13991;51.174;4.438;2023-06-10T14:01:26;33.20;48.90
26081;DHT22;13991;51.174;4.438;2023-06-10T14:04:03;33.20;49.40
26081;DHT22;13991;51.174;4.438;2023-06-10T14:06:33;33.30;49.90
26081;DHT22;13991;51.174;4.438;2023-06-10T14:15:01;33.10;51.10
26081;DHT22;13991;51.174;4.438;2023-06-10T14:17:29;33.30;51.00
26081;DHT22;13991;51.174;4.438;2023-06-10T14:20:04;33.30;49.80
26081;DHT22;13991;51.174;4.438;2023-06-10T14:22:37;33.40;49.00
26081;DHT22;13991;51.174;4.438;2023-06-10T14:25:13;33.50;48.60
26081;DHT22;13991;51.174;4.438;2023-06-10T14:27:56;33.40;48.70
26081;DHT22;13991;51.174;4.438;2023-06-10T14:30:26;33.60;49.20
26081;DHT22;13991;51.174;4.438;2023-06-10T14:33:13;33.60;50.50
26081;DHT22;13991;51.174;4.438;2023-06-10T14:36:22;33.50;49.10
26081;DHT22;13991;51.174;4.438;2023-06-10T14:39:01;33.30;48.40
26081;DHT22;13991;51.174;4.438;2023-06-10T14:41:44;33.30;48.20
26081;DHT22;13991;51.174;4.438;2023-06-10T14:44:13;33.50;49.40
26081;DHT22;13991;51.174;4.438;2023-06-10T14:46:43;33.60;48.40
26081;DHT22;13991;51.174;4.438;2023-06-10T14:49:11;33.60;48.80
26081;DHT22;13991;51.174;4.438;2023-06-10T14:51:40;33.60;49.10
26081;DHT22;13991;51.174;4.438;2023-06-10T14:54:06;33.80;49.90
26081;DHT22;13991;51.174;4.438;2023-06-10T14:56:37;33.60;48.20
26081;DHT22;13991;51.174;4.438;2023-06-10T14:59:03;33.80;48.00
26081;DHT22;13991;51.174;4.438;2023-06-10T15:01:29;33.60;48.00
26081;DHT22;13991;51.174;4.438;2023-06-10T15:03:57;33.50;48.30
26081;DHT22;13991;51.174;4.438;2023-06-10T15:06:23;33.60;47.40
26081;DHT22;13991;51.174;4.438;2023-06-10T15:08:49;33.60;48.00
26081;DHT22;13991;51.174;4.438;2023-06-10T15:11:17;33.60;47.70
26081;DHT22;13991;51.174;4.438;2023-06-10T15:13:50;33.70;46.80
26081;DHT22;13991;51.174;4.438;2023-06-10T15:16:19;33.60;47.30
26081;DHT22;13991;51.174;4.438;2023-06-10T15:18:51;33.70;47.00
26081;DHT22;13991;51.174;4.438;2023-06-10T15:21:22;33.80;47.00
26081;DHT22;13991;51.174;4.438;2023-06-10T15:23:54;33.60;48.10
26081;DHT22;13991;51.174;4.438;2023-06-10T15:26:44;33.60;48.10
26081;DHT22;13991;51.174;4.438;2023-06-10T15:29:12;33.40;48.70
26081;DHT22;13991;51.174;4.438;2023-06-10T15:32:09;33.20;50.00
26081;DHT22;13991;51.174;4.438;2023-06-10T15:34:52;33.30;49.40
26081;DHT22;13991;51.174;4.438;2023-06-10T15:37:22;33.40;50.10
26081;DHT22;13991;51.174;4.438;2023-06-10T15:39:53;33.20;46.50
26081;DHT22;13991;51.174;4.438;2023-06-10T15:42:32;33.40;46.20
26081;DHT22;13991;51.174;4.438;2023-06-10T15:45:05;33.40;46.80
26081;DHT22;13991;51.174;4.438;2023-06-10T15:47:32;33.30;47.10
26081;DHT22;13991;51.174;4.438;2023-06-10T15:49:58;33.50;47.30
26081;DHT22;13991;51.174;4.438;2023-06-10T15:53:02;33.60;44.80
26081;DHT22;13991;51.174;4.438;2023-06-10T15:55:30;33.70;45.40
26081;DHT22;13991;51.174;4.438;2023-06-10T15:57:59;33.40;46.60
26081;DHT22;13991;51.174;4.438;2023-06-10T16:00:28;33.60;44.90
26081;DHT22;13991;51.174;4.438;2023-06-10T16:03:03;33.60;45.20
26081;DHT22;13991;51.174;4.438;2023-06-10T16:05:41;33.60;45.60
26081;DHT22;13991;51.174;4.438;2023-06-10T16:08:13;33.50;45.80
26081;DHT22;13991;51.174;4.438;2023-06-10T16:10:58;33.30;45.20
26081;DHT22;13991;51.174;4.438;2023-06-10T16:13:27;33.40;45.50
26081;DHT22;13991;51.174;4.438;2023-06-10T16:16:05;33.30;45.70
26081;DHT22;13991;51.174;4.438;2023-06-10T16:18:37;33.10;45.80
26081;DHT22;13991;51.174;4.438;2023-06-10T16:21:09;33.30;46.50
26081;DHT22;13991;51.174;4.438;2023-06-10T16:23:41;33.10;46.80